createdAt,value
2023-04-21T00:01:00.629Z,7.38
2023-04-21T00:03:28.686Z,9.05
2023-04-21T00:05:58.860Z,7.15
2023-04-21T00:08:28.524Z,8.20
2023-04-21T00:10:55.256Z,10.32
2023-04-21T00:13:23.901Z,8.13
2023-04-21T00:15:51.328Z,9.02
2023-04-21T00:18:18.130Z,7.93
2023-04-21T00:20:45.172Z,10.55
2023-04-21T00:23:12.143Z,8.75
2023-04-21T00:25:38.743Z,8.93
2023-04-21T00:28:05.582Z,10.93
2023-04-21T00:30:32.214Z,5.97
2023-04-21T00:32:58.912Z,6.88
2023-04-21T00:35:26.130Z,6.35
2023-04-21T00:37:53.069Z,8.25
2023-04-21T00:40:20.539Z,6.43
2023-04-21T00:42:47.374Z,9.50
2023-04-21T00:45:17.610Z,6.93
2023-04-21T00:47:44.602Z,6.40
2023-04-21T00:50:12.257Z,6.28
2023-04-21T00:52:44.017Z,6.75
2023-04-21T00:55:11.160Z,5.90
2023-04-21T00:57:40.633Z,7.40
2023-04-21T01:00:09.025Z,7.72
2023-04-21T01:02:37.561Z,8.13
2023-04-21T01:05:09.301Z,6.85
2023-04-21T01:07:36.394Z,7.03
2023-04-21T01:10:04.180Z,7.93
2023-04-21T01:12:31.033Z,10.38
2023-04-21T01:14:57.662Z,7.55
2023-04-21T01:17:24.467Z,11.05
2023-04-21T01:19:53.575Z,6.80
2023-04-21T01:22:20.178Z,6.50
2023-04-21T01:24:48.832Z,6.53
2023-04-21T01:27:20.139Z,7.57
2023-04-21T01:29:51.991Z,7.05
2023-04-21T01:32:25.271Z,8.35
2023-04-21T01:34:52.238Z,10.88
2023-04-21T01:37:25.873Z,10.05
2023-04-21T01:39:54.888Z,13.70
2023-04-21T01:42:24.746Z,6.13
2023-04-21T01:44:53.820Z,6.53
2023-04-21T01:47:21.461Z,10.27
2023-04-21T01:49:48.180Z,7.35
2023-04-21T01:52:14.858Z,13.68
2023-04-21T01:54:41.616Z,12.82
2023-04-21T01:57:08.528Z,10.18
2023-04-21T01:59:35.604Z,7.43
2023-04-21T02:02:02.273Z,11.10
2023-04-21T02:04:29.243Z,14.85
2023-04-21T02:06:56.040Z,11.77
2023-04-21T02:09:22.872Z,10.38
2023-04-21T02:11:49.518Z,12.63
2023-04-21T02:14:16.300Z,14.43
2023-04-21T02:16:43.178Z,14.75
2023-04-21T02:19:09.909Z,11.43
2023-04-21T02:21:36.536Z,14.40
2023-04-21T02:24:05.252Z,12.07
2023-04-21T02:26:33.194Z,15.85
2023-04-21T02:28:59.925Z,12.07
2023-04-21T02:31:26.949Z,13.00
2023-04-21T02:33:54.755Z,12.77
2023-04-21T02:36:21.796Z,8.55
2023-04-21T02:38:48.496Z,11.40
2023-04-21T02:41:15.182Z,10.18
2023-04-21T02:43:41.802Z,12.45
2023-04-21T02:46:09.768Z,12.98
2023-04-21T02:48:36.968Z,13.23
2023-04-21T02:51:04.696Z,11.85
2023-04-21T02:53:31.719Z,14.38
2023-04-21T02:55:58.358Z,13.98
2023-04-21T02:58:25.032Z,12.90
2023-04-21T03:00:51.845Z,15.27
2023-04-21T03:03:19.024Z,13.07
2023-04-21T03:05:46.131Z,14.45
2023-04-21T03:08:12.997Z,15.70
2023-04-21T03:10:39.973Z,15.73
2023-04-21T03:13:06.612Z,17.23
2023-04-21T03:15:33.247Z,13.40
2023-04-21T03:17:59.893Z,11.20
2023-04-21T03:20:26.584Z,13.45
2023-04-21T03:22:56.168Z,13.82
2023-04-21T03:25:22.929Z,16.13
2023-04-21T03:27:49.841Z,15.48
2023-04-21T03:30:16.632Z,16.95
2023-04-21T03:32:43.270Z,15.40
2023-04-21T03:35:09.973Z,14.30
2023-04-21T03:37:36.731Z,14.10
2023-04-21T03:40:09.090Z,11.52
2023-04-21T03:45:03.913Z,18.40
2023-04-21T03:47:30.768Z,17.75
2023-04-21T03:49:57.524Z,18.65
2023-04-21T03:52:24.791Z,18.80
2023-04-21T03:54:51.541Z,16.67
2023-04-21T03:57:18.191Z,13.93
2023-04-21T03:59:44.982Z,19.08
2023-04-21T04:02:11.727Z,15.75
2023-04-21T04:04:38.804Z,13.35
2023-04-21T04:07:07.519Z,20.50
2023-04-21T04:09:34.337Z,17.75
2023-04-21T04:12:02.965Z,14.27
2023-04-21T04:14:30.319Z,18.35
2023-04-21T04:16:58.436Z,18.42
2023-04-21T04:19:30.562Z,21.50
2023-04-21T04:21:59.689Z,18.80
2023-04-21T04:24:26.821Z,18.98
2023-04-21T04:26:54.961Z,18.50
2023-04-21T04:29:22.736Z,19.15
2023-04-21T04:31:52.834Z,19.33
2023-04-21T04:34:19.967Z,14.88
2023-04-21T04:36:48.124Z,18.02
2023-04-21T04:39:16.736Z,19.55
2023-04-21T04:41:43.729Z,26.15
2023-04-21T04:44:11.360Z,21.33
2023-04-21T04:46:39.323Z,27.27
2023-04-21T04:49:06.008Z,23.85
2023-04-21T04:51:32.829Z,20.52
2023-04-21T04:53:59.590Z,25.45
2023-04-21T04:56:26.257Z,22.35
2023-04-21T04:58:52.984Z,19.10
2023-04-21T05:01:19.602Z,24.13
2023-04-21T05:03:46.938Z,23.58
2023-04-21T05:06:14.395Z,18.20
2023-04-21T05:08:44.009Z,22.80
2023-04-21T05:11:10.712Z,22.73
2023-04-21T05:13:39.809Z,22.00
2023-04-21T05:16:07.605Z,22.30
2023-04-21T05:18:34.409Z,20.98
2023-04-21T05:21:01.107Z,28.23
2023-04-21T05:23:27.952Z,22.40
2023-04-21T05:25:54.553Z,24.67
2023-04-21T05:28:21.425Z,23.83
2023-04-21T05:30:48.029Z,27.13
2023-04-21T05:33:14.687Z,26.23
2023-04-21T05:35:41.521Z,19.13
2023-04-21T05:38:08.246Z,26.75
2023-04-21T05:40:34.787Z,24.20
2023-04-21T05:43:01.410Z,25.92
2023-04-21T05:45:27.932Z,27.10
2023-04-21T05:47:54.600Z,27.23
2023-04-21T05:50:21.337Z,28.58
2023-04-21T05:52:48.025Z,30.52
2023-04-21T05:55:14.641Z,34.75
2023-04-21T05:57:41.339Z,30.25
2023-04-21T06:00:08.713Z,30.55
2023-04-21T06:02:35.492Z,32.17
2023-04-21T06:05:02.502Z,31.35
2023-04-21T06:07:29.516Z,37.63
2023-04-21T06:09:57.919Z,37.97
2023-04-21T06:12:24.833Z,30.40
2023-04-21T06:14:51.674Z,35.30
2023-04-21T06:17:18.647Z,29.08
2023-04-21T06:19:45.397Z,32.70
2023-04-21T06:22:12.058Z,30.27
2023-04-21T06:24:38.797Z,29.73
2023-04-21T06:27:11.261Z,35.60
2023-04-21T06:32:06.196Z,36.83
2023-04-21T06:34:32.911Z,37.00
2023-04-21T06:36:59.633Z,37.97
2023-04-21T06:39:26.485Z,38.90
2023-04-21T06:41:53.259Z,39.22
2023-04-21T06:44:20.202Z,35.28
2023-04-21T06:46:47.525Z,37.45
2023-04-21T06:49:14.158Z,24.23
2023-04-21T06:51:40.964Z,38.17
2023-04-21T06:54:07.650Z,41.20
2023-04-21T06:56:34.527Z,41.42
2023-04-21T06:59:01.126Z,37.38
2023-04-21T07:01:27.829Z,29.25
2023-04-21T07:03:54.854Z,36.72
2023-04-21T07:06:21.500Z,34.33
2023-04-21T07:08:48.117Z,29.92
2023-04-21T07:11:14.704Z,38.63
2023-04-21T07:13:41.336Z,36.78
2023-04-21T07:16:08.116Z,28.00
2023-04-21T07:18:34.852Z,35.03
2023-04-21T07:21:01.473Z,33.95
2023-04-21T07:23:28.285Z,32.53
2023-04-21T07:25:54.966Z,32.55
2023-04-21T07:28:21.714Z,33.95
2023-04-21T07:30:48.422Z,38.33
2023-04-21T07:33:15.503Z,30.23
2023-04-21T07:35:42.335Z,33.30
2023-04-21T07:38:09.402Z,32.30
2023-04-21T07:40:36.028Z,25.75
2023-04-21T07:43:02.718Z,28.40
2023-04-21T07:45:29.391Z,34.30
2023-04-21T07:47:56.072Z,24.48
2023-04-21T07:50:22.776Z,35.53
2023-04-21T07:52:49.466Z,31.05
2023-04-21T07:55:16.216Z,33.97
2023-04-21T07:57:42.852Z,29.23
2023-04-21T08:00:10.467Z,28.02
2023-04-21T08:02:37.207Z,30.33
2023-04-21T08:05:04.072Z,21.23
2023-04-21T08:07:31.875Z,30.40
2023-04-21T08:09:58.869Z,27.02
2023-04-21T08:12:25.930Z,20.30
2023-04-21T08:14:52.588Z,27.05
2023-04-21T08:17:19.228Z,23.50
2023-04-21T08:19:45.882Z,17.27
2023-04-21T08:22:12.634Z,23.55
2023-04-21T08:24:39.766Z,22.38
2023-04-21T08:27:06.443Z,16.10
2023-04-21T08:29:33.059Z,27.50
2023-04-21T08:31:59.843Z,21.58
2023-04-21T08:34:27.914Z,24.52
2023-04-21T08:36:54.757Z,23.23
2023-04-21T08:39:21.588Z,20.65
2023-04-21T08:41:48.889Z,18.13
2023-04-21T08:44:15.941Z,21.60
2023-04-21T08:46:44.785Z,22.00
2023-04-21T08:49:13.033Z,21.83
2023-04-21T08:51:40.336Z,19.67
2023-04-21T08:54:07.007Z,25.25
2023-04-21T08:56:33.683Z,22.10
2023-04-21T08:59:00.367Z,22.70
2023-04-21T09:01:27.167Z,20.70
2023-04-21T09:03:54.130Z,19.67
2023-04-21T09:06:21.421Z,19.77
2023-04-21T09:08:58.051Z,22.02
2023-04-21T09:11:25.207Z,16.05
2023-04-21T09:13:51.882Z,16.83
2023-04-21T09:16:21.648Z,16.50
2023-04-21T09:18:50.168Z,21.48
2023-04-21T09:21:18.864Z,19.45
2023-04-21T09:23:55.551Z,19.90
2023-04-21T09:26:25.246Z,19.17
2023-04-21T09:28:53.096Z,19.00
2023-04-21T09:31:23.062Z,16.75
2023-04-21T09:36:28.041Z,17.77
2023-04-21T09:39:05.577Z,19.38
2023-04-21T09:41:44.522Z,16.27
2023-04-21T09:44:11.154Z,15.30
2023-04-21T09:46:38.172Z,15.65
2023-04-21T09:49:06.170Z,17.50
2023-04-21T09:51:56.301Z,17.63
2023-04-21T09:54:29.551Z,18.60
2023-04-21T09:56:59.542Z,15.00
2023-04-21T09:59:29.802Z,16.58
2023-04-21T10:01:58.879Z,17.00
2023-04-21T10:04:26.399Z,17.08
2023-04-21T10:06:53.557Z,16.73
2023-04-21T10:09:23.860Z,15.50
2023-04-21T10:11:51.665Z,13.60
2023-04-21T10:14:18.820Z,13.43
2023-04-21T10:16:56.923Z,15.80
2023-04-21T10:19:25.800Z,17.42
2023-04-21T10:21:55.348Z,15.35
2023-04-21T10:24:22.251Z,17.38
2023-04-21T10:26:52.630Z,14.63
2023-04-21T10:29:43.666Z,13.45
2023-04-21T10:32:33.159Z,14.10
2023-04-21T10:35:00.150Z,14.50
2023-04-21T10:37:31.114Z,14.50
2023-04-21T10:39:57.938Z,14.20
2023-04-21T10:42:27.324Z,14.35
2023-04-21T10:45:02.588Z,14.73
2023-04-21T10:47:37.054Z,15.43
2023-04-21T10:50:23.536Z,11.27
2023-04-21T10:53:00.037Z,11.73
2023-04-21T10:55:28.585Z,17.13
2023-04-21T10:57:56.089Z,15.00
2023-04-21T11:00:24.498Z,14.95
2023-04-21T11:03:03.067Z,14.65
2023-04-21T11:05:32.251Z,11.77
2023-04-21T11:08:09.000Z,14.15
2023-04-21T11:11:02.175Z,11.00
2023-04-21T11:13:35.029Z,13.20
2023-04-21T11:16:07.022Z,13.25
2023-04-21T11:18:45.235Z,11.48
2023-04-21T11:21:24.594Z,11.25
2023-04-21T11:23:56.073Z,12.52
2023-04-21T11:26:33.755Z,10.32
2023-04-21T11:29:02.286Z,9.25
2023-04-21T11:31:30.407Z,11.32
2023-04-21T11:33:58.427Z,10.13
2023-04-21T11:36:25.143Z,7.57
2023-04-21T11:38:51.751Z,9.88
2023-04-21T11:41:22.979Z,12.15
2023-04-21T11:43:50.808Z,9.25
2023-04-21T11:46:24.934Z,10.27
2023-04-21T11:49:13.507Z,11.48
2023-04-21T11:51:42.256Z,11.13
2023-04-21T11:54:13.888Z,12.35
2023-04-21T11:56:42.472Z,11.82
2023-04-21T11:59:11.021Z,12.82
2023-04-21T12:01:48.783Z,11.20
2023-04-21T12:04:19.711Z,10.68
2023-04-21T12:06:48.032Z,10.48
2023-04-21T12:09:19.332Z,9.13
2023-04-21T12:11:51.389Z,7.53
2023-04-21T12:14:21.036Z,12.73
2023-04-21T12:16:53.396Z,12.13
2023-04-21T12:19:39.213Z,10.10
2023-04-21T12:22:10.751Z,8.27
2023-04-21T12:24:38.239Z,10.30
2023-04-21T12:27:05.837Z,9.30
2023-04-21T12:29:35.730Z,8.50
2023-04-21T12:32:02.568Z,11.55
2023-04-21T12:34:29.373Z,11.93
2023-04-21T12:36:56.086Z,11.40
2023-04-21T12:39:22.785Z,12.55
2023-04-21T12:41:49.401Z,7.60
2023-04-21T12:44:16.057Z,15.07
2023-04-21T12:46:42.769Z,10.60
2023-04-21T12:49:10.145Z,9.23
2023-04-21T12:51:36.895Z,11.27
2023-04-21T12:54:03.624Z,14.85
2023-04-21T12:56:30.640Z,15.27
2023-04-21T12:58:58.248Z,18.95
2023-04-21T13:01:25.120Z,10.98
2023-04-21T13:03:52.107Z,17.40
2023-04-21T13:06:19.108Z,15.65
2023-04-21T13:08:45.737Z,13.43
2023-04-21T13:11:12.356Z,17.77
2023-04-21T13:13:39.086Z,12.68
2023-04-21T13:16:06.090Z,21.60
2023-04-21T13:18:34.967Z,15.27
2023-04-21T13:21:02.108Z,16.00
2023-04-21T13:23:29.187Z,12.48
2023-04-21T13:25:56.010Z,6.65
2023-04-21T13:28:23.524Z,14.13
2023-04-21T13:30:52.453Z,12.65
2023-04-21T13:33:19.936Z,13.38
2023-04-21T13:35:46.724Z,19.10
2023-04-21T13:38:13.409Z,20.05
2023-04-21T13:40:39.989Z,22.13
2023-04-21T13:43:06.780Z,13.82
2023-04-21T13:45:33.480Z,16.38
2023-04-21T13:48:00.151Z,16.92
2023-04-21T13:50:26.792Z,14.90
2023-04-21T13:52:53.446Z,12.95
2023-04-21T13:55:21.008Z,18.02
2023-04-21T13:57:47.579Z,16.67
2023-04-21T14:00:18.036Z,18.88
2023-04-21T14:02:45.005Z,19.08
2023-04-21T14:05:12.052Z,25.15
2023-04-21T14:07:39.098Z,18.85
2023-04-21T14:10:08.859Z,17.58
2023-04-21T14:12:35.602Z,24.27
2023-04-21T14:15:02.310Z,23.50
2023-04-21T14:17:28.989Z,23.27
2023-04-21T14:19:55.735Z,19.45
2023-04-21T14:22:22.460Z,23.38
2023-04-21T14:24:49.172Z,23.85
2023-04-21T14:27:16.252Z,30.45
2023-04-21T14:29:42.898Z,25.38
2023-04-21T14:32:09.643Z,29.63
2023-04-21T14:34:36.304Z,20.92
2023-04-21T14:37:03.286Z,26.85
2023-04-21T14:39:29.896Z,19.75
2023-04-21T14:41:56.579Z,23.63
2023-04-21T14:44:23.193Z,17.60
2023-04-21T14:47:00.987Z,25.33
2023-04-21T14:49:33.131Z,22.10
2023-04-21T14:52:00.074Z,19.67
2023-04-21T14:54:26.706Z,21.65
2023-04-21T14:57:00.539Z,25.55
2023-04-21T14:59:33.835Z,19.83
2023-04-21T15:02:01.013Z,19.13
2023-04-21T15:04:28.152Z,23.77
2023-04-21T15:06:54.900Z,26.80
2023-04-21T15:09:21.667Z,24.75
2023-04-21T15:11:48.449Z,22.23
2023-04-21T15:14:15.049Z,22.52
2023-04-21T15:16:41.712Z,21.98
2023-04-21T15:19:08.365Z,27.27
2023-04-21T15:21:35.061Z,18.67
2023-04-21T15:24:01.667Z,24.05
2023-04-21T15:26:30.326Z,25.60
2023-04-21T15:28:57.792Z,16.88
2023-04-21T15:31:24.590Z,25.67
2023-04-21T15:33:51.341Z,19.63
2023-04-21T15:36:17.932Z,21.48
2023-04-21T15:38:45.142Z,18.10
2023-04-21T15:41:11.906Z,21.33
2023-04-21T15:43:38.785Z,19.13
2023-04-21T15:46:13.087Z,24.88
2023-04-21T15:48:41.489Z,29.58
2023-04-21T15:51:09.165Z,21.67
2023-04-21T15:53:37.366Z,27.63
2023-04-21T15:56:04.902Z,26.90
2023-04-21T15:58:31.598Z,27.35
2023-04-21T16:00:58.324Z,25.23
2023-04-21T16:03:26.408Z,25.13
2023-04-21T16:05:53.610Z,27.77
2023-04-21T16:08:20.814Z,26.55
2023-04-21T16:10:47.638Z,22.70
2023-04-21T16:13:14.318Z,20.42
2023-04-21T16:15:41.334Z,26.27
2023-04-21T16:18:08.606Z,13.45
2023-04-21T16:20:36.859Z,9.80
2023-04-21T16:23:04.912Z,6.72
2023-04-21T16:25:34.362Z,6.38
2023-04-21T16:28:01.099Z,6.38
2023-04-21T16:30:27.834Z,6.65
2023-04-21T16:32:54.505Z,7.55
2023-04-21T16:35:21.354Z,5.80
2023-04-21T16:37:48.097Z,7.05
2023-04-21T16:40:14.761Z,5.78
2023-04-21T16:42:41.508Z,7.13
2023-04-21T16:45:08.449Z,3.65
2023-04-21T16:47:41.355Z,4.45
2023-04-21T16:50:09.267Z,5.15
2023-04-21T16:52:35.963Z,3.80
2023-04-21T16:55:02.527Z,4.53
2023-04-21T16:57:30.430Z,3.70
2023-04-21T16:59:59.147Z,4.35
2023-04-21T17:02:26.131Z,4.07
2023-04-21T17:04:52.863Z,6.07
2023-04-21T17:07:19.519Z,5.47
2023-04-21T17:09:46.123Z,5.45
2023-04-21T17:12:12.797Z,4.95
2023-04-21T17:14:40.319Z,4.90
2023-04-21T17:17:07.239Z,5.35
2023-04-21T17:19:34.048Z,2.95
2023-04-21T17:22:00.953Z,5.47
2023-04-21T17:24:33.101Z,5.22
2023-04-21T17:27:04.884Z,3.40
2023-04-21T17:29:31.953Z,4.68
2023-04-21T17:31:58.733Z,5.40
2023-04-21T17:34:25.344Z,3.72
2023-04-21T17:36:51.998Z,5.25
2023-04-21T17:39:18.657Z,6.55
2023-04-21T17:41:47.245Z,6.13
2023-04-21T17:44:13.922Z,6.22
2023-04-21T17:46:41.719Z,5.97
2023-04-21T17:49:08.430Z,6.32
2023-04-21T17:51:36.111Z,4.40
2023-04-21T17:54:03.286Z,4.97
2023-04-21T17:56:29.906Z,3.90
2023-04-21T17:58:56.653Z,4.65
2023-04-21T18:01:23.349Z,3.25
2023-04-21T18:03:50.223Z,3.92
2023-04-21T18:06:17.558Z,3.30
2023-04-21T18:08:44.264Z,3.35
2023-04-21T18:11:12.186Z,3.20
2023-04-21T18:13:38.820Z,3.67
2023-04-21T18:16:05.616Z,4.00
2023-04-21T18:18:32.322Z,4.47
2023-04-21T18:20:59.792Z,4.97
2023-04-21T18:23:26.433Z,4.75
2023-04-21T18:25:52.983Z,4.82
2023-04-21T18:28:19.630Z,4.10
2023-04-21T18:30:46.862Z,3.55
2023-04-21T18:33:13.524Z,4.65
2023-04-21T18:35:41.656Z,5.60
2023-04-21T18:38:10.464Z,3.30
2023-04-21T18:40:37.695Z,6.65
2023-04-21T18:43:05.147Z,4.20
2023-04-21T18:45:32.063Z,4.13
2023-04-21T18:47:58.826Z,4.68
2023-04-21T18:50:27.613Z,4.80
2023-04-21T18:52:55.109Z,7.47
2023-04-21T18:55:22.025Z,3.63
2023-04-21T18:57:48.869Z,3.78
2023-04-21T19:00:15.909Z,5.18
2023-04-21T19:02:43.321Z,7.10
2023-04-21T19:05:10.027Z,3.92
2023-04-21T19:07:36.746Z,5.72
2023-04-21T19:10:03.392Z,4.53
2023-04-21T19:12:30.064Z,5.10
2023-04-21T19:14:56.769Z,3.13
2023-04-21T19:17:23.502Z,5.85
2023-04-21T19:19:51.120Z,6.25
2023-04-21T19:22:19.890Z,7.00
2023-04-21T19:24:47.463Z,4.93
2023-04-21T19:27:14.125Z,14.23
2023-04-21T19:29:41.519Z,6.00
2023-04-21T19:32:08.323Z,8.00
2023-04-21T19:34:35.060Z,4.30
2023-04-21T19:37:01.795Z,5.70
2023-04-21T19:39:28.728Z,3.20
2023-04-21T19:41:57.429Z,3.60
2023-04-21T19:44:24.292Z,3.83
2023-04-21T19:46:51.266Z,4.93
2023-04-21T19:49:18.015Z,3.70
2023-04-21T19:51:44.660Z,4.25
2023-04-21T19:54:13.178Z,3.47
2023-04-21T19:56:40.783Z,4.47
2023-04-21T19:59:07.687Z,3.67
2023-04-21T20:01:34.746Z,4.00
2023-04-21T20:04:02.152Z,4.80
2023-04-21T20:06:29.184Z,4.05
2023-04-21T20:08:56.075Z,6.40
2023-04-21T20:11:23.285Z,5.05
2023-04-21T20:13:50.522Z,6.03
2023-04-21T20:16:20.871Z,5.13
2023-04-21T20:18:48.967Z,3.72
2023-04-21T20:21:15.585Z,6.75
2023-04-21T20:23:42.161Z,6.75
2023-04-21T20:26:08.798Z,6.03
2023-04-21T20:28:36.089Z,3.95
2023-04-21T20:31:02.899Z,5.40
2023-04-21T20:33:30.268Z,7.97
2023-04-21T20:35:57.248Z,5.72
2023-04-21T20:38:24.055Z,3.88
2023-04-21T20:40:52.474Z,7.30
2023-04-21T20:43:19.320Z,6.75
2023-04-21T20:45:47.734Z,5.65
2023-04-21T20:48:14.373Z,3.70
2023-04-21T20:50:42.262Z,5.60
2023-04-21T20:53:10.087Z,5.00
2023-04-21T20:55:36.929Z,11.38
2023-04-21T20:58:04.701Z,13.18
2023-04-21T21:00:33.046Z,15.00
2023-04-21T21:03:00.386Z,5.57
2023-04-21T21:05:33.390Z,4.13
2023-04-21T21:08:00.067Z,5.55
2023-04-21T21:10:26.892Z,6.38
2023-04-21T21:12:53.642Z,6.68
2023-04-21T21:15:20.228Z,6.32
2023-04-21T21:17:46.942Z,4.43
2023-04-21T21:20:13.561Z,5.18
2023-04-21T21:22:40.207Z,13.80
2023-04-21T21:25:07.176Z,9.77
2023-04-21T21:27:34.164Z,13.07
2023-04-21T21:30:00.889Z,11.18
2023-04-21T21:32:27.576Z,8.48
2023-04-21T21:34:54.192Z,5.65
2023-04-21T21:37:21.340Z,6.55
2023-04-21T21:39:48.354Z,7.03
2023-04-21T21:42:15.099Z,5.00
2023-04-21T21:44:41.715Z,6.60
2023-04-21T21:47:08.348Z,6.45
2023-04-21T21:49:35.052Z,7.35
2023-04-21T21:52:02.600Z,5.57
2023-04-21T21:54:29.276Z,5.07
2023-04-21T21:56:56.344Z,5.18
2023-04-21T21:59:23.158Z,7.05
2023-04-21T22:01:51.167Z,6.88
2023-04-21T22:04:18.050Z,7.65
2023-04-21T22:06:45.532Z,5.05
2023-04-21T22:09:12.206Z,6.00
2023-04-21T22:11:38.787Z,7.32
2023-04-21T22:14:18.529Z,4.63
2023-04-21T22:16:50.821Z,5.95
2023-04-21T22:19:19.254Z,5.90
2023-04-21T22:21:46.050Z,6.88
2023-04-21T22:24:13.018Z,5.63
2023-04-21T22:26:39.784Z,5.75
2023-04-21T22:29:07.096Z,5.32
2023-04-21T22:31:33.889Z,5.57
2023-04-21T22:34:00.742Z,6.55
2023-04-21T22:36:27.401Z,4.85
2023-04-21T22:38:54.044Z,6.28
2023-04-21T22:41:21.223Z,5.78
2023-04-21T22:43:47.943Z,4.85
2023-04-21T22:46:14.970Z,5.25
2023-04-21T22:48:41.826Z,4.18
2023-04-21T22:51:08.558Z,5.20
2023-04-21T22:53:35.501Z,5.80
2023-04-21T22:56:02.504Z,4.93
2023-04-21T22:58:29.220Z,5.20
2023-04-21T23:01:39.359Z,5.63
2023-04-21T23:04:06.187Z,4.43
2023-04-21T23:06:33.345Z,4.72
2023-04-21T23:09:00.175Z,4.97
2023-04-21T23:11:26.896Z,4.57
2023-04-21T23:13:54.035Z,4.38
2023-04-21T23:16:20.844Z,5.70
2023-04-21T23:18:47.528Z,4.70
2023-04-21T23:21:14.442Z,5.03
2023-04-21T23:23:41.078Z,5.15
2023-04-21T23:26:07.710Z,4.50
2023-04-21T23:28:34.343Z,5.90
2023-04-21T23:31:01.047Z,5.32
2023-04-21T23:33:27.732Z,4.75
2023-04-21T23:35:57.344Z,6.47
2023-04-21T23:38:23.997Z,4.75
2023-04-21T23:40:50.608Z,6.30
2023-04-21T23:43:17.204Z,5.32
2023-04-21T23:45:43.875Z,4.45
2023-04-21T23:48:10.489Z,6.55
2023-04-21T23:50:37.372Z,6.07
2023-04-21T23:53:04.100Z,6.32
2023-04-21T23:55:30.824Z,5.93
2023-04-21T23:57:58.188Z,4.45
